Time;durP1;ratioP1;P1;durP2;ratioP2;P2;SDS_P1;SDS_P2;PMS_P1;PMS_P2;Temp;Humidity;BMP_temperature;BMP_pressure;BME280_temperature;BME280_humidity;BME280_pressure;Samples;Min_cycle;Max_cycle;Signal;HPM_P1;HPM_P2
2022/06/03 00:02:22;;;;;;;4.55;2.67;;;17.20;63.90;;;16.21;65.95;96163.75;5002474;28;20072;-66
2022/06/03 00:05:06;;;;;;;4.20;2.80;;;17.20;62.90;;;16.20;65.72;96168.25;5006490;28;20042;-65
2022/06/03 00:07:49;;;;;;;3.05;2.50;;;17.20;62.70;;;16.20;65.52;96157.66;5025046;28;20033;-64
2022/06/03 00:10:48;;;;;;;4.97;2.80;;;17.20;62.60;;;16.21;65.54;96169.88;5018323;28;20033;-64
2022/06/03 00:13:50;;;;;;;5.63;3.10;;;17.30;62.90;;;16.23;66.10;96164.34;5018491;28;20037;-64
2022/06/03 00:16:59;;;;;;;3.17;2.63;;;17.30;63.20;;;16.22;65.55;96155.56;5036188;28;20030;-64
2022/06/03 00:19:47;;;;;;;3.38;2.40;;;17.30;63.00;;;16.20;65.74;96146.22;5028661;28;20516;-64
2022/06/03 00:22:13;;;;;;;5.10;2.75;;;17.20;63.20;;;16.19;66.50;96150.72;5008851;28;20045;-65
2022/06/03 00:25:19;;;;;;;5.28;2.95;;;17.20;63.40;;;16.18;66.64;96149.09;5030656;28;20041;-64
2022/06/03 00:27:59;;;;;;;3.50;2.67;;;17.20;63.40;;;16.16;65.84;96139.75;5030004;28;20037;-65
2022/06/03 00:31:08;;;;;;;3.88;2.90;;;17.20;63.50;;;16.14;66.60;96149.75;5036491;28;20103;-65
2022/06/03 00:34:14;;;;;;;6.55;3.28;;;17.10;63.60;;;16.09;67.46;96152.28;5004203;28;20061;-65
2022/06/03 00:37:01;;;;;;;3.88;3.10;;;17.10;63.90;;;16.04;67.33;96146.81;5004559;28;20492;-65
2022/06/03 00:39:54;;;;;;;6.18;3.65;;;17.00;64.40;;;16.04;67.03;96142.31;5042978;28;20037;-64
2022/06/03 00:42:57;;;;;;;3.92;3.20;;;17.10;64.60;;;16.01;67.51;96140.09;5010468;28;20541;-65
2022/06/03 00:45:52;;;;;;;3.95;3.03;;;17.00;64.70;;;15.98;67.69;96137.09;5009708;28;20045;-66
2022/06/03 00:48:46;;;;;;;6.05;2.95;;;17.10;64.90;;;15.95;67.66;96132.22;5018241;28;20044;-65
2022/06/03 00:51:24;;;;;;;5.40;3.25;;;17.00;65.30;;;15.91;67.79;96135.34;5007783;28;20038;-65
2022/06/03 00:54:05;;;;;;;4.43;3.00;;;16.90;64.90;;;15.88;67.30;96121.69;5000426;28;20029;-66
2022/06/03 00:56:44;;;;;;;4.47;3.45;;;16.90;65.30;;;15.85;68.59;96127.47;4993504;28;20033;-64
2022/06/03 00:59:34;;;;;;;4.20;2.88;;;16.80;65.70;;;15.81;68.74;96121.75;5005502;28;20037;-64
2022/06/03 01:02:22;;;;;;;4.97;3.30;;;16.80;65.30;;;15.79;67.71;96123.81;4991867;28;20568;-64
2022/06/03 01:05:45;;;;;;;5.38;3.13;;;16.80;65.10;;;15.76;67.98;96126.91;4990925;28;20046;-65
2022/06/03 01:08:47;;;;;;;5.57;3.22;;;16.80;65.60;;;15.70;67.73;96125.16;4987368;28;20037;-65
2022/06/03 01:11:47;;;;;;;5.25;3.55;;;16.70;65.70;;;15.67;68.86;96122.94;5008271;28;20052;-64
2022/06/03 01:14:54;;;;;;;3.78;3.08;;;16.70;65.20;;;15.65;68.95;96117.06;5021418;28;20044;-65
2022/06/03 01:17:38;;;;;;;3.80;3.00;;;16.70;65.70;;;15.62;68.72;96125.44;5037750;28;20056;-65
2022/06/03 01:21:03;;;;;;;5.43;3.38;;;16.60;65.80;;;15.58;67.99;96125.06;5038408;28;20034;-65
2022/06/03 01:24:14;;;;;;;6.90;3.28;;;16.60;66.00;;;15.54;69.38;96118.53;4930206;29;20503;-65
2022/06/03 01:27:05;;;;;;;4.50;3.28;;;16.60;66.30;;;15.51;69.27;96112.88;4917432;29;20130;-65
2022/06/03 01:29:55;;;;;;;4.38;3.20;;;16.50;66.30;;;15.47;69.23;96123.09;5022588;28;20125;-65
2022/06/03 01:33:04;;;;;;;4.07;3.42;;;16.50;66.10;;;15.46;69.72;96118.84;5011492;28;20071;-65
2022/06/03 01:35:45;;;;;;;4.97;3.20;;;16.50;66.30;;;15.42;69.18;96120.31;5037859;28;20041;-65
2022/06/03 01:38:26;;;;;;;4.95;3.25;;;16.40;67.10;;;15.38;69.21;96124.41;5015745;28;20037;-64
2022/06/03 01:41:05;;;;;;;4.10;3.63;;;16.40;67.00;;;15.33;68.84;96125.06;5024550;28;20102;-65
2022/06/03 01:43:39;;;;;;;5.28;3.33;;;16.40;67.10;;;15.27;69.92;96125.13;5011145;28;20045;-65
2022/06/03 01:46:31;;;;;;;5.88;3.95;;;16.30;67.10;;;15.21;70.49;96110.91;5011977;28;20104;-64
2022/06/03 01:48:56;;;;;;;5.78;3.65;;;16.20;67.60;;;15.17;70.25;96119.53;5004865;28;20034;-65
2022/06/03 01:51:47;;;;;;;5.15;3.35;;;16.10;68.00;;;15.11;71.43;96110.59;5030387;28;20539;-65
2022/06/03 01:54:37;;;;;;;3.90;3.50;;;16.10;68.40;;;15.07;72.22;96108.59;5005708;28;20088;-65
2022/06/03 01:57:27;;;;;;;3.88;3.40;;;16.10;68.80;;;15.01;71.73;96111.09;5019533;28;20034;-64
2022/06/03 02:00:23;;;;;;;3.97;3.58;;;16.00;69.00;;;14.97;72.98;96109.91;5033660;28;20041;-64
2022/06/03 02:03:36;;;;;;;4.47;3.40;;;15.90;69.70;;;14.92;73.06;96103.59;4986732;28;20041;-64
2022/06/03 02:06:16;;;;;;;4.72;3.60;;;15.90;69.70;;;14.86;72.24;96107.94;5019760;28;20058;-65
2022/06/03 02:09:15;;;;;;;4.25;3.50;;;15.80;69.80;;;14.84;73.41;96119.78;5020702;28;21018;-65
2022/06/03 02:12:06;;;;;;;4.18;3.42;;;15.80;69.60;;;14.79;72.98;96119.59;5044274;28;20033;-66
2022/06/03 02:15:21;;;;;;;4.82;3.88;;;15.70;69.70;;;14.73;73.73;96126.56;5042547;28;20143;-66
2022/06/03 02:18:29;;;;;;;4.80;3.75;;;15.70;70.00;;;14.66;73.83;96123.94;5018404;28;20547;-64
2022/06/03 02:21:44;;;;;;;4.85;3.97;;;15.60;70.20;;;14.61;72.37;96130.91;5024930;28;20033;-64
2022/06/03 02:24:31;;;;;;;4.15;3.72;;;15.60;70.10;;;14.53;73.27;96121.41;5018946;28;20037;-65
2022/06/03 02:27:25;;;;;;;5.10;3.90;;;15.50;70.30;;;14.49;73.17;96122.84;5012994;28;20092;-65
2022/06/03 02:30:36;;;;;;;4.32;3.80;;;15.40;70.30;;;14.44;73.88;96119.19;5010899;28;20050;-64
2022/06/03 02:33:36;;;;;;;18.15;16.23;;;15.40;70.70;;;14.38;73.48;96113.72;5029682;28;20037;-64
2022/06/03 02:36:06;;;;;;;25.42;20.67;;;15.30;71.30;;;14.35;73.08;96115.97;5035409;28;20082;-65
2022/06/03 02:39:02;;;;;;;12.90;11.38;;;15.40;70.90;;;14.35;74.47;96111.50;5046167;28;20508;-65
2022/06/03 02:42:02;;;;;;;6.07;5.40;;;15.40;71.10;;;14.34;75.84;96115.16;5010720;28;20049;-65
2022/06/03 02:44:39;;;;;;;23.67;21.08;;;15.40;71.50;;;14.33;74.41;96113.53;5022383;28;20041;-65
2022/06/03 02:47:32;;;;;;;23.40;20.52;;;15.40;72.30;;;14.35;75.16;96106.19;5016185;28;20029;-65
2022/06/03 02:50:15;;;;;;;6.63;5.72;;;15.40;72.00;;;14.37;74.46;96106.00;5020988;28;20053;-65
2022/06/03 02:52:59;;;;;;;5.65;4.28;;;15.40;71.50;;;14.38;74.76;96102.31;5017645;28;20041;-64
2022/06/03 02:55:53;;;;;;;8.50;4.03;;;15.50;70.90;;;14.39;73.87;96096.81;5021002;28;20068;-65
2022/06/03 02:58:34;;;;;;;4.68;3.80;;;15.50;70.70;;;14.39;74.89;96096.00;5022131;28;20050;-65
2022/06/03 03:01:24;;;;;;;6.15;4.60;;;15.50;70.90;;;14.42;74.70;96095.56;5009452;28;20516;-64
2022/06/03 03:04:30;;;;;;;8.18;5.13;;;15.50;70.80;;;14.42;73.79;96095.56;5031837;28;20053;-66
2022/06/03 03:07:34;;;;;;;27.15;23.77;;;15.50;70.40;;;14.43;74.99;96106.97;5025498;28;20045;-66
2022/06/03 03:10:14;;;;;;;13.07;10.52;;;15.50;70.10;;;14.41;74.06;96105.34;5021628;28;20033;-64
2022/06/03 03:13:26;;;;;;;6.22;5.60;;;15.50;69.90;;;14.41;73.97;96104.53;5037006;28;20538;-65
2022/06/03 03:16:12;;;;;;;6.10;4.82;;;15.50;70.20;;;14.38;74.04;96107.59;5030514;28;20048;-64
2022/06/03 03:19:07;;;;;;;5.05;4.05;;;15.50;70.10;;;14.39;73.60;96111.88;5032953;28;20103;-65
2022/06/03 03:21:32;;;;;;;5.15;4.15;;;15.50;69.90;;;14.37;73.22;96119.22;5033599;28;20041;-64
2022/06/03 03:24:26;;;;;;;4.95;4.22;;;15.50;69.50;;;14.38;73.71;96126.13;5031079;28;20393;-66
2022/06/03 03:27:15;;;;;;;4.68;3.75;;;15.50;69.20;;;14.40;72.95;96126.72;5016846;28;20125;-66
2022/06/03 03:30:22;;;;;;;6.88;4.22;;;15.50;69.60;;;14.41;74.31;96117.75;5014779;28;20636;-67
2022/06/03 03:33:08;;;;;;;5.93;4.20;;;15.60;69.70;;;14.45;73.92;96124.28;5013364;28;20042;-64
2022/06/03 03:36:08;;;;;;;5.55;4.50;;;15.60;69.40;;;14.44;72.53;96130.59;5023976;28;20029;-64
2022/06/03 03:39:11;;;;;;;4.85;3.80;;;15.60;69.10;;;14.47;72.72;96138.13;5010115;28;20100;-66
2022/06/03 03:42:19;;;;;;;5.68;4.05;;;15.60;69.20;;;14.47;72.70;96135.47;5041761;28;20038;-65
2022/06/03 03:45:41;;;;;;;6.03;3.97;;;15.60;69.10;;;14.49;72.34;96122.06;5015033;28;20095;-66
2022/06/03 03:48:25;;;;;;;4.35;3.60;;;15.70;68.60;;;14.52;73.45;96121.63;5028738;28;20449;-66
2022/06/03 03:51:13;;;;;;;4.38;3.85;;;15.70;68.60;;;14.55;72.18;96132.59;5037410;28;20676;-66
2022/06/03 03:54:13;;;;;;;4.38;3.75;;;15.80;68.40;;;14.55;72.06;96127.28;5025927;28;20133;-65
2022/06/03 03:57:12;;;;;;;6.35;3.90;;;15.80;68.20;;;14.59;72.45;96130.31;5028234;28;20583;-66
2022/06/03 04:00:08;;;;;;;4.88;4.00;;;15.80;68.90;;;14.60;72.81;96130.09;5008070;28;20730;-66
2022/06/03 04:03:03;;;;;;;6.75;4.10;;;15.80;69.10;;;14.63;73.03;96131.50;5003316;28;20503;-67
2022/06/03 04:05:43;;;;;;;4.55;3.80;;;15.90;68.70;;;14.66;73.33;96129.25;5025876;28;20616;-67
2022/06/03 04:08:44;;;;;;;5.15;3.90;;;16.00;68.30;;;14.73;73.77;96128.41;5026082;28;20069;-66
2022/06/03 04:12:08;;;;;;;;;;;16.10;68.20;;;14.74;72.05;96137.97;5036573;28;20044;-67
2022/06/03 04:14:39;;;;;;;4.25;3.78;;;16.10;67.80;;;14.75;72.45;96132.47;4963262;28;20404;-67
2022/06/03 04:17:26;;;;;;;4.32;3.92;;;16.10;68.50;;;14.78;72.58;96131.22;4963277;28;20158;-67
2022/06/03 04:20:24;;;;;;;6.32;3.65;;;16.00;68.80;;;14.79;73.37;96132.84;4989450;28;20527;-66
2022/06/03 04:23:26;;;;;;;4.85;3.95;;;16.10;68.30;;;14.82;73.52;96135.88;4992215;28;20358;-66
2022/06/03 04:26:14;;;;;;;4.72;4.10;;;16.10;68.30;;;14.88;73.22;96134.19;4963766;28;20064;-66
2022/06/03 04:28:56;;;;;;;5.72;3.78;;;16.20;68.70;;;14.90;73.83;96126.84;5015827;28;20057;-65
2022/06/03 04:32:06;;;;;;;6.15;4.07;;;16.20;68.60;;;14.95;72.65;96137.63;5004651;28;20928;-66
2022/06/03 04:35:20;;;;;;;4.72;3.75;;;16.20;68.50;;;14.99;73.71;96139.63;4987518;28;20037;-65
2022/06/03 04:38:29;;;;;;;8.27;4.53;;;16.30;68.10;;;15.03;73.21;96134.72;5017947;28;20086;-67
2022/06/03 04:41:36;;;;;;;7.65;4.38;;;16.40;67.70;;;15.08;73.09;96139.34;5023430;28;20068;-65
2022/06/03 04:44:39;;;;;;;4.20;3.80;;;16.50;68.20;;;15.12;72.25;96130.75;5020586;28;20072;-67
2022/06/03 04:47:27;;;;;;;5.63;4.15;;;16.50;67.70;;;15.16;72.26;96126.66;5024486;28;20119;-65
2022/06/03 04:50:25;;;;;;;5.57;4.45;;;16.50;67.50;;;15.17;72.66;96128.28;5018064;28;20029;-67
2022/06/03 04:53:40;;;;;;;6.03;4.50;;;16.50;67.30;;;15.21;73.17;96137.41;5006163;28;20326;-67
2022/06/03 04:56:55;;;;;;;7.00;4.20;;;16.60;67.90;;;15.26;72.85;96137.56;5033004;28;20065;-67
2022/06/03 05:00:04;;;;;;;6.15;4.03;;;16.70;67.20;;;15.37;72.21;96151.94;5025054;28;20034;-68
2022/06/03 05:02:58;;;;;;;4.82;4.40;;;16.90;67.00;;;15.47;72.12;96140.84;5032687;28;20517;-61
2022/06/03 05:06:27;;;;;;;4.72;4.18;;;17.00;67.10;;;15.61;74.25;96127.28;5007102;28;20072;-66
2022/06/03 05:09:32;;;;;;;6.13;4.60;;;17.20;67.60;;;15.71;72.12;96136.56;4960634;28;20074;-66
2022/06/03 05:12:09;;;;;;;5.65;4.75;;;17.30;66.70;;;15.80;73.42;96130.75;5001999;28;20128;-65
2022/06/03 05:15:31;;;;;;;6.63;4.43;;;17.40;66.70;;;15.89;72.83;96118.81;5027607;28;20037;-65
2022/06/03 05:18:43;;;;;;;6.80;5.22;;;17.50;67.10;;;15.97;73.79;96130.16;5026452;28;20040;-65
2022/06/03 05:22:05;;;;;;;8.35;5.20;;;17.60;67.40;;;16.01;72.80;96123.38;5027122;28;20026;-64
2022/06/03 05:25:11;;;;;;;6.00;5.40;;;17.50;67.20;;;16.07;73.85;96117.16;5039250;28;20041;-65
2022/06/03 05:28:41;;;;;;;7.97;5.85;;;17.60;67.70;;;16.15;74.05;96114.25;5009943;28;20049;-64
2022/06/03 05:31:41;;;;;;;6.80;5.28;;;17.70;68.10;;;16.23;75.28;96109.41;4985789;28;20041;-63
2022/06/03 05:34:49;;;;;;;9.50;5.72;;;17.80;68.40;;;16.31;74.82;96110.97;5003768;28;20038;-63
2022/06/03 05:38:00;;;;;;;7.03;5.53;;;17.90;68.00;;;16.39;74.58;96123.94;5002584;28;20033;-63
2022/06/03 05:40:44;;;;;;;;;;;18.10;67.90;;;16.47;74.66;96126.25;4998168;28;20042;-64
2022/06/03 05:43:37;;;;;;;7.57;5.15;;;18.10;67.90;;;16.58;74.10;96115.91;4988957;28;20272;-63
2022/06/03 05:46:16;;;;;;;7.60;5.35;;;18.30;67.70;;;16.72;74.33;96114.69;5029025;28;20032;-63
2022/06/03 05:48:50;;;;;;;8.45;5.05;;;18.50;67.30;;;16.85;74.02;96122.50;5021614;28;20776;-66
2022/06/03 05:51:22;;;;;;;9.13;5.18;;;18.60;67.60;;;17.00;74.55;96109.59;4979930;28;20114;-63
2022/06/03 05:54:03;;;;;;;6.90;5.32;;;18.70;67.70;;;17.19;74.92;96107.63;5035654;28;20036;-65
2022/06/03 05:57:04;;;;;;;7.55;5.00;;;19.00;67.70;;;17.43;74.80;96103.16;5024719;28;20026;-64
2022/06/03 05:59:54;;;;;;;8.25;5.07;;;19.20;67.30;;;17.67;74.25;96104.78;5012684;28;20036;-63
2022/06/03 06:02:52;;;;;;;7.43;5.10;;;19.50;66.90;;;17.98;73.58;96108.09;5015201;28;20050;-64
2022/06/03 06:05:37;;;;;;;6.15;4.40;;;19.80;66.80;;;18.23;73.28;96113.91;5019030;28;20040;-64
2022/06/03 06:08:38;;;;;;;7.72;4.45;;;20.00;66.00;;;18.45;71.54;96106.06;5005370;28;20111;-66
2022/06/03 06:11:30;;;;;;;6.80;4.63;;;20.20;64.60;;;18.74;72.00;96106.09;5015160;28;20037;-64
2022/06/03 06:14:28;;;;;;;6.80;4.78;;;20.60;63.90;;;19.03;70.68;96096.19;5042111;28;20041;-66
2022/06/03 06:16:56;;;;;;;6.60;4.60;;;21.10;62.50;;;19.35;71.29;96091.91;5047902;28;20563;-65
2022/06/03 06:19:36;;;;;;;5.03;4.28;;;21.60;61.30;;;19.68;69.36;96098.25;5004837;28;20068;-64
2022/06/03 06:22:21;;;;;;;5.25;4.38;;;21.80;60.60;;;19.97;68.93;96101.59;5013911;28;20064;-64
2022/06/03 06:25:25;;;;;;;6.20;4.13;;;22.10;60.30;;;20.18;66.42;96106.94;5039235;28;20040;-68
2022/06/03 06:28:01;;;;;;;6.28;4.18;;;22.20;59.20;;;20.38;66.64;96108.22;5024871;28;20040;-65
2022/06/03 06:30:54;;;;;;;4.65;3.70;;;22.50;58.60;;;20.52;65.77;96108.66;5025197;28;20435;-64
2022/06/03 06:33:48;;;;;;;5.78;4.35;;;22.40;59.00;;;20.56;65.80;96115.91;5035723;28;20182;-63
2022/06/03 06:37:12;;;;;;;4.93;4.40;;;22.40;59.30;;;20.54;66.03;96120.69;5040917;28;20038;-63
2022/06/03 06:40:16;;;;;;;5.53;4.22;;;22.20;59.80;;;20.47;66.67;96128.13;5035286;28;20172;-64
2022/06/03 06:43:00;;;;;;;5.15;4.60;;;22.10;60.60;;;20.41;66.53;96119.25;5023473;28;20490;-66
2022/06/03 06:45:41;;;;;;;5.68;4.80;;;22.00;61.20;;;20.37;67.19;96117.31;5026659;28;20080;-64
2022/06/03 06:48:27;;;;;;;5.55;4.35;;;22.00;61.60;;;20.34;67.48;96123.13;5027243;28;20530;-62
2022/06/03 06:51:18;;;;;;;5.65;4.22;;;22.00;61.20;;;20.35;69.14;96135.41;5035037;28;20042;-65
2022/06/03 06:54:12;;;;;;;5.28;4.70;;;22.10;62.20;;;20.36;68.36;96123.66;5023467;28;20162;-64
2022/06/03 06:56:48;;;;;;;5.60;4.30;;;22.10;61.50;;;20.38;67.56;96129.59;5020797;28;20060;-63
2022/06/03 06:59:30;;;;;;;6.35;4.53;;;22.10;61.10;;;20.39;68.28;96115.19;5012777;28;20034;-63
2022/06/03 07:02:20;;;;;;;5.43;4.30;;;22.20;60.80;;;20.44;67.88;96094.69;5010290;28;20056;-64
2022/06/03 07:04:59;;;;;;;6.90;4.67;;;22.30;61.50;;;20.43;68.38;96095.75;4991274;28;20344;-64
2022/06/03 07:08:05;;;;;;;6.40;4.45;;;22.30;61.50;;;20.55;68.09;96098.25;4995138;28;20029;-65
2022/06/03 07:11:03;;;;;;;4.97;3.83;;;22.50;61.30;;;20.64;67.44;96080.75;5006566;28;20038;-64
2022/06/03 07:13:39;;;;;;;7.03;3.88;;;22.70;60.40;;;20.79;67.55;96072.84;4978147;28;20037;-64
2022/06/03 07:19:47;;;;;;;6.45;4.80;;;23.10;59.10;;;21.03;67.54;96072.50;5009405;28;20113;-66
2022/06/03 07:22:25;;;;;;;5.13;4.55;;;23.10;59.20;;;21.17;66.16;96081.72;4994212;28;20114;-66
2022/06/03 07:25:18;;;;;;;8.30;5.78;;;23.00;59.70;;;21.24;66.29;96085.00;5024785;28;20044;-65
2022/06/03 07:27:43;;;;;;;11.27;5.30;;;23.20;58.70;;;21.29;66.85;96082.38;5036877;28;20595;-64
2022/06/03 07:30:18;;;;;;;5.78;4.53;;;23.40;58.40;;;21.42;66.03;96080.31;5031563;28;20121;-66
2022/06/03 07:33:21;;;;;;;6.13;4.82;;;23.60;57.80;;;21.69;65.59;96081.00;5024551;28;20064;-64
2022/06/03 07:35:58;;;;;;;5.80;4.13;;;24.30;56.80;;;22.10;66.58;96086.59;4998415;28;20567;-67
2022/06/03 07:38:54;;;;;;;5.72;4.25;;;24.90;56.90;;;22.59;66.69;96073.63;5020576;28;20128;-64
2022/06/03 07:41:29;;;;;;;5.63;4.28;;;25.50;56.60;;;23.06;64.26;96068.06;5014826;28;20045;-68
2022/06/03 07:44:02;;;;;;;5.75;4.13;;;26.00;53.90;;;23.51;63.11;96074.47;5007937;28;20445;-63
2022/06/03 07:47:00;;;;;;;4.72;4.20;;;26.40;52.70;;;23.97;60.63;96063.63;4996676;28;20163;-63
2022/06/03 07:49:27;;;;;;;4.93;4.13;;;26.90;50.80;;;24.40;62.57;96068.28;4994855;28;20038;-65
2022/06/03 07:51:57;;;;;;;4.90;4.25;;;27.30;50.80;;;24.82;61.32;96069.66;4983721;28;20044;-64
2022/06/03 07:54:33;;;;;;;5.13;3.97;;;27.70;50.10;;;25.18;59.00;96064.84;5010083;28;20061;-64
2022/06/03 07:57:08;;;;;;;5.93;3.70;;;28.10;49.20;;;25.50;56.57;96056.19;5005495;28;20840;-63
2022/06/03 07:59:37;;;;;;;4.65;3.60;;;28.40;47.00;;;25.83;58.11;96059.13;4968765;28;20037;-64
2022/06/03 08:02:18;;;;;;;5.13;3.78;;;28.70;47.40;;;26.15;54.57;96051.19;5017084;28;20065;-63
2022/06/03 08:04:47;;;;;;;5.65;3.85;;;28.90;46.40;;;26.42;55.29;96057.88;4991288;28;20037;-65
2022/06/03 08:12:58;;;;;;;4.95;3.42;;;29.80;45.10;;;27.15;55.15;96052.72;5033658;28;20084;-63
2022/06/03 08:15:28;;;;;;;3.90;2.90;;;30.10;44.70;;;27.40;52.84;96048.81;4991004;28;20128;-63
2022/06/03 08:17:54;;;;;;;5.97;3.10;;;30.40;43.90;;;27.62;53.18;96044.66;5008986;28;20058;-65
2022/06/03 08:20:21;;;;;;;4.03;3.20;;;30.70;42.30;;;27.89;52.33;96044.69;5015190;28;20418;-63
2022/06/03 08:22:47;;;;;;;5.55;3.70;;;31.00;42.70;;;28.18;52.57;96046.28;4997454;28;20460;-63
2022/06/03 08:25:17;;;;;;;5.75;4.28;;;31.40;41.80;;;28.35;49.92;96058.13;5014200;28;20037;-64
2022/06/03 08:27:43;;;;;;;4.78;3.25;;;31.50;40.60;;;28.57;50.66;96049.25;4995212;28;20033;-63
2022/06/03 08:30:12;;;;;;;4.25;3.45;;;31.50;41.10;;;28.87;49.46;96047.78;5013061;28;20065;-64
2022/06/03 08:32:43;;;;;;;3.95;3.15;;;32.00;41.50;;;29.19;48.85;96043.22;5014824;28;20688;-64
2022/06/03 08:35:13;;;;;;;3.83;3.08;;;32.30;40.50;;;29.31;47.18;96037.25;4986859;28;20034;-63
2022/06/03 08:38:13;;;;;;;3.20;2.85;;;32.10;39.40;;;29.41;44.44;96029.63;4958136;28;20044;-63
2022/06/03 08:41:12;;;;;;;4.65;2.72;;;32.10;37.90;;;29.65;44.51;96023.91;5014518;28;20084;-63
2022/06/03 08:44:27;;;;;;;7.50;2.47;;;32.50;38.70;;;29.87;44.25;96020.28;5031541;28;20034;-62
2022/06/03 08:47:20;;;;;;;4.47;2.47;;;32.60;38.50;;;30.13;43.79;96018.50;4999577;28;20374;-65
2022/06/03 08:50:01;;;;;;;5.80;2.55;;;32.90;38.30;;;30.29;43.97;96016.13;5018782;28;20026;-67
2022/06/03 08:53:00;;;;;;;4.40;2.20;;;33.00;38.30;;;30.44;43.50;96023.81;5022578;28;20210;-68
2022/06/03 08:56:01;;;;;;;2.47;2.28;;;33.10;38.30;;;30.61;42.81;96016.84;5004371;28;20053;-68
2022/06/03 08:58:37;;;;;;;4.57;2.28;;;33.30;37.40;;;30.80;42.92;96013.81;5001688;28;20134;-66
2022/06/03 09:01:18;;;;;;;4.50;2.40;;;33.50;37.80;;;30.90;43.20;96008.84;5029431;28;20561;-62
2022/06/03 09:04:13;;;;;;;3.60;2.40;;;33.50;37.90;;;31.09;42.33;96006.59;5031132;28;20093;-63
2022/06/03 09:07:23;;;;;;;2.47;2.20;;;33.80;37.20;;;31.16;41.73;95999.84;4992855;28;20048;-64
2022/06/03 09:10:12;;;;;;;3.85;2.20;;;33.90;36.40;;;31.07;41.97;95997.97;5032455;28;20055;-63
2022/06/03 09:13:04;;;;;;;4.38;2.00;;;33.80;36.10;;;31.13;41.61;96000.50;5003284;28;20070;-63
2022/06/03 09:15:36;;;;;;;3.28;2.30;;;33.90;36.10;;;31.21;42.12;96002.44;4991603;28;20393;-63
2022/06/03 09:18:23;;;;;;;3.67;2.70;;;34.00;36.10;;;31.39;42.67;96003.97;4994756;28;20064;-67
2022/06/03 09:21:10;;;;;;;3.38;2.15;;;34.30;36.50;;;31.44;41.90;95997.56;4992205;28;20642;-63
2022/06/03 09:23:42;;;;;;;3.10;2.00;;;34.30;36.00;;;31.57;41.19;95999.28;4982632;28;20045;-66
2022/06/03 09:26:24;;;;;;;3.83;2.00;;;34.60;35.70;;;31.64;40.20;95994.94;4972433;28;20453;-64
2022/06/03 09:28:50;;;;;;;3.35;2.35;;;34.70;36.00;;;31.74;40.76;95996.53;4976829;28;20045;-64
2022/06/03 09:31:16;;;;;;;2.80;2.05;;;34.80;33.50;;;31.81;40.85;95990.56;4986269;28;20037;-64
2022/06/03 09:33:42;;;;;;;4.78;2.50;;;35.00;33.90;;;31.81;41.22;95994.09;5027487;28;20512;-63
2022/06/03 09:36:13;;;;;;;4.00;2.20;;;34.90;34.40;;;31.94;40.70;95978.69;5004994;28;20644;-63
2022/06/03 09:38:43;;;;;;;2.53;1.95;;;35.10;34.40;;;32.00;39.64;95982.81;4976304;28;20053;-64
2022/06/03 09:41:08;;;;;;;3.20;2.05;;;35.30;34.30;;;32.13;41.48;95979.03;5000446;28;20750;-62
2022/06/03 09:43:40;;;;;;;4.40;1.55;;;35.50;34.50;;;32.25;39.97;95975.59;5031253;28;20033;-64
2022/06/03 09:46:11;;;;;;;2.35;1.95;;;35.60;34.20;;;32.32;38.91;95975.09;4972896;28;20051;-63
2022/06/03 09:48:37;;;;;;;2.88;1.77;;;35.70;33.50;;;32.45;39.68;95974.84;4977673;28;20034;-65
2022/06/03 09:51:55;;;;;;;2.83;1.70;;;35.90;32.90;;;32.66;38.66;95974.03;5009520;28;20441;-64
2022/06/03 09:54:11;;;;;;;3.22;1.80;;;36.30;33.30;;;32.88;39.99;95969.06;5020738;28;20045;-65
2022/06/03 09:56:36;;;;;;;2.60;1.60;;;36.50;33.90;;;33.11;40.27;95968.69;4996229;28;20037;-66
2022/06/03 09:59:02;;;;;;;3.65;1.60;;;36.90;33.40;;;33.31;39.81;95967.81;5005123;28;20034;-64
2022/06/03 10:01:28;;;;;;;4.88;1.80;;;37.10;32.60;;;33.46;39.33;95964.44;4978668;28;20057;-65
2022/06/03 10:04:00;;;;;;;3.42;1.63;;;37.30;31.70;;;33.74;38.08;95961.06;5015944;28;20522;-65
2022/06/03 10:06:46;;;;;;;3.28;1.73;;;37.70;31.10;;;34.03;38.94;95957.34;4960741;28;20080;-64
2022/06/03 10:17:52;;;;;;;2.00;1.63;;;38.50;28.90;;;35.00;36.40;95956.28;5010646;28;20048;-66
2022/06/03 10:20:17;;;;;;;3.10;1.45;;;38.90;29.30;;;35.26;35.81;95945.66;5018997;28;20042;-66
2022/06/03 10:22:46;;;;;;;2.88;1.60;;;39.10;28.00;;;35.33;34.39;95933.31;5008591;28;20037;-67
2022/06/03 10:25:12;;;;;;;4.18;1.52;;;39.10;28.20;;;35.58;35.54;95923.81;5023133;28;20038;-66
2022/06/03 10:27:38;;;;;;;6.70;1.92;;;39.50;28.10;;;35.90;35.31;95924.59;5008073;28;20037;-66
2022/06/03 10:30:05;;;;;;;3.10;1.48;;;39.90;28.20;;;36.28;34.38;95923.88;4974932;28;20054;-66
2022/06/03 10:32:31;;;;;;;3.03;1.63;;;40.20;28.20;;;36.60;35.15;95916.34;4987110;28;20057;-66
2022/06/03 10:35:14;;;;;;;3.17;1.50;;;40.70;27.30;;;36.97;32.72;95911.22;5010609;28;20626;-68
2022/06/03 10:37:55;;;;;;;3.53;1.52;;;41.00;27.60;;;37.31;31.83;95914.19;5004590;28;20038;-64
2022/06/03 10:40:21;;;;;;;2.60;1.30;;;41.30;26.80;;;37.67;32.97;95904.59;5033411;28;20112;-67
2022/06/03 10:42:49;;;;;;;2.13;1.27;;;41.50;26.00;;;37.94;32.13;95899.91;5014525;28;20042;-66
2022/06/03 10:45:15;;;;;;;2.93;1.47;;;41.70;25.70;;;38.01;32.70;95894.50;5025592;28;20041;-65
2022/06/03 10:47:43;;;;;;;2.20;1.10;;;41.50;26.20;;;38.12;32.38;95892.72;5011755;28;20715;-67
2022/06/03 10:50:34;;;;;;;1.93;1.50;;;41.60;26.30;;;38.32;30.51;95895.38;4993213;28;20030;-67
2022/06/03 11:01:54;;;;;;;2.83;1.17;;;41.90;25.40;;;39.20;30.11;95890.13;5007528;28;20037;-66
2022/06/03 11:04:33;;;;;;;3.25;1.13;;;42.10;25.20;;;39.26;29.13;95883.09;4978616;28;20045;-64
2022/06/03 11:07:01;;;;;;;;;;;42.10;25.60;;;39.57;29.28;95879.03;5027341;28;20042;-65
2022/06/03 11:09:27;;;;;;;1.88;1.40;;;42.50;25.70;;;39.77;30.32;95879.56;5017383;28;20029;-66
2022/06/03 11:12:04;;;;;;;1.45;1.10;;;42.60;24.80;;;39.94;28.96;95889.91;5001442;28;20132;-63
2022/06/03 11:14:39;;;;;;;4.53;1.27;;;42.80;25.40;;;39.89;28.64;95886.75;5002969;28;20073;-68
2022/06/03 11:17:17;;;;;;;2.15;1.15;;;42.50;25.60;;;39.81;28.75;95883.13;4996257;28;20034;-65
2022/06/03 11:19:48;;;;;;;1.45;0.98;;;42.00;25.80;;;39.67;28.71;95878.34;5013728;28;20052;-65
2022/06/03 11:22:32;;;;;;;2.97;1.63;;;42.10;26.00;;;39.56;28.47;95876.66;5008971;28;20128;-65
2022/06/03 11:25:27;;;;;;;4.43;1.25;;;41.90;25.80;;;39.47;28.41;95854.94;5012385;28;20025;-66
2022/06/03 11:28:19;;;;;;;3.72;1.30;;;41.90;25.70;;;39.59;28.14;95868.41;5007687;28;20034;-66
2022/06/03 11:30:51;;;;;;;2.17;1.40;;;42.10;25.30;;;39.70;28.58;95860.25;5003701;28;20568;-66
2022/06/03 11:33:28;;;;;;;4.20;1.50;;;42.40;25.20;;;39.80;28.17;95862.28;5030450;28;20079;-66
2022/06/03 11:36:27;;;;;;;2.75;1.20;;;42.50;25.30;;;39.84;27.48;95871.38;5002987;28;20590;-66
2022/06/03 11:39:03;;;;;;;1.95;1.42;;;42.60;24.30;;;40.07;27.72;95865.63;5005729;28;20085;-63
2022/06/03 11:41:32;;;;;;;5.43;1.40;;;43.00;24.60;;;40.23;28.00;95870.81;4992837;28;20043;-65
2022/06/03 11:45:02;;;;;;;2.80;1.40;;;43.30;24.70;;;40.61;27.12;95861.94;5008063;28;21431;-66
2022/06/03 11:47:38;;;;;;;2.08;1.30;;;43.70;23.90;;;40.84;26.72;95858.06;4936565;28;20051;-64
2022/06/03 11:50:04;;;;;;;2.83;1.42;;;44.20;23.10;;;41.08;27.64;95864.81;4931787;29;20039;-72
2022/06/03 11:52:30;;;;;;;1.55;1.30;;;44.30;22.80;;;41.29;27.08;95857.38;4973892;28;20049;-73
2022/06/03 11:54:55;;;;;;;2.47;1.20;;;44.60;23.00;;;41.35;26.62;95859.72;5012153;28;20030;-64
2022/06/03 11:57:23;;;;;;;1.65;1.20;;;44.50;22.70;;;41.44;26.83;95868.41;5031849;28;20546;-73
2022/06/03 11:59:52;;;;;;;2.08;1.30;;;44.50;22.50;;;41.11;26.73;95867.56;5003109;28;20041;-74
2022/06/03 12:02:34;;;;;;;2.88;1.38;;;43.40;23.20;;;40.64;25.54;95866.66;5020547;28;20079;-72
2022/06/03 12:05:16;;;;;;;2.30;1.20;;;42.80;23.40;;;40.26;25.72;95872.78;4978070;28;20041;-71
2022/06/03 12:08:06;;;;;;;6.47;1.20;;;42.20;23.50;;;39.70;27.12;95863.00;5005420;28;20643;-70
2022/06/03 12:10:46;;;;;;;1.80;1.35;;;41.50;25.50;;;39.21;27.62;95872.44;5018585;28;20037;-72
2022/06/03 12:13:32;;;;;;;2.47;1.30;;;41.00;26.10;;;38.69;27.42;95867.94;5003071;28;20107;-71